sensor_id;sensor_type;location;lat;lon;timestamp;P1;durP1;ratioP1;P2;durP2;ratioP2
22973;SDS011;11653;50.848;4.584;2023-11-21T00:01:18;86.63;;;30.80;;
22973;SDS011;11653;50.848;4.584;2023-11-21T00:03:44;89.27;;;31.93;;
22973;SDS011;11653;50.848;4.584;2023-11-21T00:06:09;86.80;;;30.10;;
22973;SDS011;11653;50.848;4.584;2023-11-21T00:08:37;83.40;;;29.73;;
22973;SDS011;11653;50.848;4.584;2023-11-21T00:11:03;79.90;;;30.23;;
22973;SDS011;11653;50.848;4.584;2023-11-21T00:13:31;81.53;;;29.93;;
22973;SDS011;11653;50.848;4.584;2023-11-21T00:15:57;86.87;;;32.47;;
22973;SDS011;11653;50.848;4.584;2023-11-21T00:18:23;89.23;;;31.07;;
22973;SDS011;11653;50.848;4.584;2023-11-21T00:20:48;72.83;;;28.63;;
22973;SDS011;11653;50.848;4.584;2023-11-21T00:23:14;79.83;;;28.13;;
22973;SDS011;11653;50.848;4.584;2023-11-21T00:25:40;83.30;;;31.50;;
22973;SDS011;11653;50.848;4.584;2023-11-21T00:28:05;74.97;;;27.73;;
22973;SDS011;11653;50.848;4.584;2023-11-21T00:30:31;67.70;;;28.03;;
22973;SDS011;11653;50.848;4.584;2023-11-21T00:32:57;74.03;;;30.87;;
22973;SDS011;11653;50.848;4.584;2023-11-21T00:35:23;73.97;;;27.03;;
22973;SDS011;11653;50.848;4.584;2023-11-21T00:37:49;71.03;;;28.40;;
22973;SDS011;11653;50.848;4.584;2023-11-21T00:40:14;71.00;;;28.40;;
22973;SDS011;11653;50.848;4.584;2023-11-21T00:42:41;66.53;;;29.83;;
22973;SDS011;11653;50.848;4.584;2023-11-21T00:45:07;63.13;;;28.23;;
22973;SDS011;11653;50.848;4.584;2023-11-21T00:47:33;79.47;;;29.53;;
22973;SDS011;11653;50.848;4.584;2023-11-21T00:49:59;73.90;;;29.97;;
22973;SDS011;11653;50.848;4.584;2023-11-21T00:52:24;72.50;;;27.23;;
22973;SDS011;11653;50.848;4.584;2023-11-21T00:54:50;65.73;;;26.43;;
22973;SDS011;11653;50.848;4.584;2023-11-21T00:57:16;63.43;;;24.57;;
22973;SDS011;11653;50.848;4.584;2023-11-21T00:59:41;64.50;;;25.93;;
22973;SDS011;11653;50.848;4.584;2023-11-21T01:02:07;79.17;;;27.80;;
22973;SDS011;11653;50.848;4.584;2023-11-21T01:04:35;61.30;;;25.90;;
22973;SDS011;11653;50.848;4.584;2023-11-21T01:07:01;68.30;;;25.40;;
22973;SDS011;11653;50.848;4.584;2023-11-21T01:09:26;101.23;;;28.30;;
22973;SDS011;11653;50.848;4.584;2023-11-21T01:11:53;50.03;;;22.27;;
22973;SDS011;11653;50.848;4.584;2023-11-21T01:14:18;65.10;;;25.63;;
22973;SDS011;11653;50.848;4.584;2023-11-21T01:16:44;48.77;;;20.17;;
22973;SDS011;11653;50.848;4.584;2023-11-21T01:19:10;55.70;;;22.47;;
22973;SDS011;11653;50.848;4.584;2023-11-21T01:21:35;45.43;;;21.30;;
22973;SDS011;11653;50.848;4.584;2023-11-21T01:24:01;50.07;;;21.60;;
22973;SDS011;11653;50.848;4.584;2023-11-21T01:26:28;48.77;;;20.33;;
22973;SDS011;11653;50.848;4.584;2023-11-21T01:28:53;50.67;;;20.27;;
22973;SDS011;11653;50.848;4.584;2023-11-21T01:31:19;50.53;;;20.33;;
22973;SDS011;11653;50.848;4.584;2023-11-21T01:33:45;58.93;;;21.40;;
22973;SDS011;11653;50.848;4.584;2023-11-21T01:36:11;68.10;;;22.90;;
22973;SDS011;11653;50.848;4.584;2023-11-21T01:38:37;68.30;;;24.60;;
22973;SDS011;11653;50.848;4.584;2023-11-21T01:41:03;64.13;;;23.03;;
22973;SDS011;11653;50.848;4.584;2023-11-21T01:43:29;73.83;;;26.03;;
22973;SDS011;11653;50.848;4.584;2023-11-21T01:45:57;66.63;;;24.30;;
22973;SDS011;11653;50.848;4.584;2023-11-21T01:48:23;78.87;;;25.47;;
22973;SDS011;11653;50.848;4.584;2023-11-21T01:50:50;83.70;;;24.40;;
22973;SDS011;11653;50.848;4.584;2023-11-21T01:53:16;77.07;;;25.13;;
22973;SDS011;11653;50.848;4.584;2023-11-21T01:55:43;73.50;;;24.83;;
22973;SDS011;11653;50.848;4.584;2023-11-21T01:58:11;66.77;;;23.50;;
22973;SDS011;11653;50.848;4.584;2023-11-21T02:00:37;81.20;;;25.33;;
22973;SDS011;11653;50.848;4.584;2023-11-21T02:03:03;85.20;;;24.83;;
22973;SDS011;11653;50.848;4.584;2023-11-21T02:05:29;83.30;;;25.27;;
22973;SDS011;11653;50.848;4.584;2023-11-21T02:07:55;78.57;;;24.60;;
22973;SDS011;11653;50.848;4.584;2023-11-21T02:10:21;83.57;;;26.83;;
22973;SDS011;11653;50.848;4.584;2023-11-21T02:12:50;97.90;;;29.57;;
22973;SDS011;11653;50.848;4.584;2023-11-21T02:15:16;86.43;;;25.80;;
22973;SDS011;11653;50.848;4.584;2023-11-21T02:17:48;101.70;;;29.70;;
22973;SDS011;11653;50.848;4.584;2023-11-21T02:20:16;104.20;;;27.83;;
22973;SDS011;11653;50.848;4.584;2023-11-21T02:22:43;95.27;;;28.67;;
22973;SDS011;11653;50.848;4.584;2023-11-21T02:25:13;112.97;;;30.43;;
22973;SDS011;11653;50.848;4.584;2023-11-21T02:27:39;98.23;;;29.93;;
22973;SDS011;11653;50.848;4.584;2023-11-21T02:30:05;107.20;;;31.10;;
22973;SDS011;11653;50.848;4.584;2023-11-21T02:32:32;96.83;;;30.37;;
22973;SDS011;11653;50.848;4.584;2023-11-21T02:34:59;92.60;;;30.63;;
22973;SDS011;11653;50.848;4.584;2023-11-21T02:37:26;87.23;;;30.03;;
22973;SDS011;11653;50.848;4.584;2023-11-21T02:39:52;90.47;;;29.30;;
22973;SDS011;11653;50.848;4.584;2023-11-21T02:42:18;85.93;;;30.23;;
22973;SDS011;11653;50.848;4.584;2023-11-21T02:44:43;82.43;;;30.27;;
22973;SDS011;11653;50.848;4.584;2023-11-21T02:47:09;88.67;;;29.90;;
22973;SDS011;11653;50.848;4.584;2023-11-21T02:49:35;90.47;;;29.67;;
22973;SDS011;11653;50.848;4.584;2023-11-21T02:52:01;91.27;;;28.77;;
22973;SDS011;11653;50.848;4.584;2023-11-21T02:54:27;81.90;;;28.67;;
22973;SDS011;11653;50.848;4.584;2023-11-21T02:56:52;86.43;;;28.70;;
22973;SDS011;11653;50.848;4.584;2023-11-21T02:59:18;88.87;;;27.63;;
22973;SDS011;11653;50.848;4.584;2023-11-21T03:01:44;94.43;;;28.23;;
22973;SDS011;11653;50.848;4.584;2023-11-21T03:04:11;85.90;;;30.47;;
22973;SDS011;11653;50.848;4.584;2023-11-21T03:06:42;76.87;;;26.63;;
22973;SDS011;11653;50.848;4.584;2023-11-21T03:09:09;83.57;;;26.20;;
22973;SDS011;11653;50.848;4.584;2023-11-21T03:11:37;83.20;;;27.00;;
22973;SDS011;11653;50.848;4.584;2023-11-21T03:14:03;82.07;;;28.10;;
22973;SDS011;11653;50.848;4.584;2023-11-21T03:16:28;79.07;;;29.13;;
22973;SDS011;11653;50.848;4.584;2023-11-21T03:18:54;81.07;;;27.70;;
22973;SDS011;11653;50.848;4.584;2023-11-21T03:21:20;76.90;;;26.97;;
22973;SDS011;11653;50.848;4.584;2023-11-21T03:23:45;76.27;;;29.13;;
22973;SDS011;11653;50.848;4.584;2023-11-21T03:26:11;71.07;;;27.67;;
22973;SDS011;11653;50.848;4.584;2023-11-21T03:28:37;75.37;;;27.97;;
22973;SDS011;11653;50.848;4.584;2023-11-21T03:31:03;82.07;;;28.37;;
22973;SDS011;11653;50.848;4.584;2023-11-21T03:33:29;79.93;;;29.20;;
22973;SDS011;11653;50.848;4.584;2023-11-21T03:35:55;74.63;;;28.13;;
22973;SDS011;11653;50.848;4.584;2023-11-21T03:38:20;87.77;;;29.30;;
22973;SDS011;11653;50.848;4.584;2023-11-21T03:40:46;85.73;;;29.70;;
22973;SDS011;11653;50.848;4.584;2023-11-21T03:43:12;74.07;;;29.13;;
22973;SDS011;11653;50.848;4.584;2023-11-21T03:45:38;66.63;;;28.63;;
22973;SDS011;11653;50.848;4.584;2023-11-21T03:48:05;79.10;;;28.43;;
22973;SDS011;11653;50.848;4.584;2023-11-21T03:50:31;79.60;;;28.73;;
22973;SDS011;11653;50.848;4.584;2023-11-21T03:52:57;88.07;;;28.00;;
22973;SDS011;11653;50.848;4.584;2023-11-21T03:55:23;80.53;;;28.57;;
22973;SDS011;11653;50.848;4.584;2023-11-21T03:57:50;74.07;;;27.83;;
22973;SDS011;11653;50.848;4.584;2023-11-21T04:00:16;78.17;;;28.27;;
22973;SDS011;11653;50.848;4.584;2023-11-21T04:02:42;80.47;;;29.10;;
22973;SDS011;11653;50.848;4.584;2023-11-21T04:05:08;73.70;;;28.90;;
22973;SDS011;11653;50.848;4.584;2023-11-21T04:07:34;79.63;;;27.07;;
22973;SDS011;11653;50.848;4.584;2023-11-21T04:10:02;86.10;;;28.17;;
22973;SDS011;11653;50.848;4.584;2023-11-21T04:12:28;81.47;;;29.57;;
22973;SDS011;11653;50.848;4.584;2023-11-21T04:14:53;77.33;;;28.47;;
22973;SDS011;11653;50.848;4.584;2023-11-21T04:17:19;83.30;;;27.83;;
22973;SDS011;11653;50.848;4.584;2023-11-21T04:19:45;74.47;;;27.43;;
22973;SDS011;11653;50.848;4.584;2023-11-21T04:22:11;73.83;;;28.57;;
22973;SDS011;11653;50.848;4.584;2023-11-21T04:24:37;84.97;;;27.63;;
22973;SDS011;11653;50.848;4.584;2023-11-21T04:27:02;76.87;;;27.63;;
22973;SDS011;11653;50.848;4.584;2023-11-21T04:29:28;78.90;;;27.23;;
22973;SDS011;11653;50.848;4.584;2023-11-21T04:31:54;65.27;;;26.70;;
22973;SDS011;11653;50.848;4.584;2023-11-21T04:34:20;66.20;;;25.03;;
22973;SDS011;11653;50.848;4.584;2023-11-21T04:36:46;76.23;;;27.13;;
22973;SDS011;11653;50.848;4.584;2023-11-21T04:39:11;77.67;;;27.50;;
22973;SDS011;11653;50.848;4.584;2023-11-21T04:41:37;77.17;;;26.60;;
22973;SDS011;11653;50.848;4.584;2023-11-21T04:44:05;58.97;;;22.73;;
22973;SDS011;11653;50.848;4.584;2023-11-21T04:46:31;55.13;;;22.07;;
22973;SDS011;11653;50.848;4.584;2023-11-21T04:48:57;56.13;;;21.67;;
22973;SDS011;11653;50.848;4.584;2023-11-21T04:51:23;66.97;;;23.00;;
22973;SDS011;11653;50.848;4.584;2023-11-21T04:53:49;66.10;;;24.17;;
22973;SDS011;11653;50.848;4.584;2023-11-21T04:56:15;65.80;;;24.50;;
22973;SDS011;11653;50.848;4.584;2023-11-21T04:58:41;68.73;;;26.43;;
22973;SDS011;11653;50.848;4.584;2023-11-21T05:01:07;59.20;;;25.17;;
22973;SDS011;11653;50.848;4.584;2023-11-21T05:03:33;63.20;;;25.00;;
22973;SDS011;11653;50.848;4.584;2023-11-21T05:05:59;70.83;;;25.60;;
22973;SDS011;11653;50.848;4.584;2023-11-21T05:08:25;72.77;;;26.87;;
22973;SDS011;11653;50.848;4.584;2023-11-21T05:10:51;76.53;;;26.20;;
22973;SDS011;11653;50.848;4.584;2023-11-21T05:13:18;69.20;;;25.53;;
22973;SDS011;11653;50.848;4.584;2023-11-21T05:15:45;69.27;;;25.57;;
22973;SDS011;11653;50.848;4.584;2023-11-21T05:18:10;65.10;;;26.13;;
22973;SDS011;11653;50.848;4.584;2023-11-21T05:20:38;67.70;;;25.60;;
22973;SDS011;11653;50.848;4.584;2023-11-21T05:23:04;73.87;;;25.47;;
22973;SDS011;11653;50.848;4.584;2023-11-21T05:25:30;72.23;;;27.30;;
22973;SDS011;11653;50.848;4.584;2023-11-21T05:27:55;74.83;;;27.17;;
22973;SDS011;11653;50.848;4.584;2023-11-21T05:30:21;72.00;;;27.27;;
22973;SDS011;11653;50.848;4.584;2023-11-21T05:32:47;71.00;;;26.60;;
22973;SDS011;11653;50.848;4.584;2023-11-21T05:35:14;73.93;;;27.90;;
22973;SDS011;11653;50.848;4.584;2023-11-21T05:37:44;87.03;;;28.87;;
22973;SDS011;11653;50.848;4.584;2023-11-21T05:40:10;83.57;;;29.27;;
22973;SDS011;11653;50.848;4.584;2023-11-21T05:42:39;73.77;;;28.57;;
22973;SDS011;11653;50.848;4.584;2023-11-21T05:45:05;79.07;;;27.93;;
22973;SDS011;11653;50.848;4.584;2023-11-21T05:47:39;81.80;;;28.53;;
22973;SDS011;11653;50.848;4.584;2023-11-21T05:50:07;86.73;;;28.67;;
22973;SDS011;11653;50.848;4.584;2023-11-21T05:52:40;73.90;;;30.37;;
22973;SDS011;11653;50.848;4.584;2023-11-21T05:55:06;77.00;;;30.00;;
22973;SDS011;11653;50.848;4.584;2023-11-21T05:57:33;81.10;;;30.23;;
22973;SDS011;11653;50.848;4.584;2023-11-21T06:00:06;87.30;;;32.33;;
22973;SDS011;11653;50.848;4.584;2023-11-21T06:02:38;84.67;;;31.47;;
22973;SDS011;11653;50.848;4.584;2023-11-21T06:05:05;92.93;;;32.87;;
22973;SDS011;11653;50.848;4.584;2023-11-21T06:07:33;86.93;;;33.63;;
22973;SDS011;11653;50.848;4.584;2023-11-21T06:10:00;84.03;;;32.67;;
22973;SDS011;11653;50.848;4.584;2023-11-21T06:12:31;90.17;;;31.93;;
22973;SDS011;11653;50.848;4.584;2023-11-21T06:15:00;83.53;;;32.37;;
22973;SDS011;11653;50.848;4.584;2023-11-21T06:17:30;85.27;;;32.17;;
22973;SDS011;11653;50.848;4.584;2023-11-21T06:19:56;88.97;;;32.37;;
22973;SDS011;11653;50.848;4.584;2023-11-21T06:22:21;80.73;;;33.27;;
22973;SDS011;11653;50.848;4.584;2023-11-21T06:24:47;76.80;;;32.53;;
22973;SDS011;11653;50.848;4.584;2023-11-21T06:27:13;76.37;;;31.83;;
22973;SDS011;11653;50.848;4.584;2023-11-21T06:29:38;74.30;;;31.50;;
22973;SDS011;11653;50.848;4.584;2023-11-21T06:32:04;76.07;;;31.30;;
22973;SDS011;11653;50.848;4.584;2023-11-21T06:34:30;82.17;;;31.50;;
22973;SDS011;11653;50.848;4.584;2023-11-21T06:36:56;81.13;;;30.13;;
22973;SDS011;11653;50.848;4.584;2023-11-21T06:39:22;76.23;;;31.30;;
22973;SDS011;11653;50.848;4.584;2023-11-21T06:41:49;74.93;;;31.20;;
22973;SDS011;11653;50.848;4.584;2023-11-21T06:44:15;87.67;;;31.03;;
22973;SDS011;11653;50.848;4.584;2023-11-21T06:46:40;87.30;;;29.47;;
22973;SDS011;11653;50.848;4.584;2023-11-21T06:49:07;73.33;;;27.30;;
22973;SDS011;11653;50.848;4.584;2023-11-21T06:51:33;71.67;;;28.33;;
22973;SDS011;11653;50.848;4.584;2023-11-21T06:53:59;70.97;;;28.20;;
22973;SDS011;11653;50.848;4.584;2023-11-21T06:56:25;65.13;;;25.93;;
22973;SDS011;11653;50.848;4.584;2023-11-21T06:58:50;79.50;;;27.20;;
22973;SDS011;11653;50.848;4.584;2023-11-21T07:01:19;65.90;;;26.40;;
22973;SDS011;11653;50.848;4.584;2023-11-21T07:03:45;68.03;;;27.43;;
22973;SDS011;11653;50.848;4.584;2023-11-21T07:06:10;52.17;;;23.60;;
22973;SDS011;11653;50.848;4.584;2023-11-21T07:08:36;70.53;;;28.70;;
22973;SDS011;11653;50.848;4.584;2023-11-21T07:11:03;66.30;;;30.27;;
22973;SDS011;11653;50.848;4.584;2023-11-21T07:13:29;79.83;;;30.50;;
22973;SDS011;11653;50.848;4.584;2023-11-21T07:15:55;71.20;;;31.20;;
22973;SDS011;11653;50.848;4.584;2023-11-21T07:18:21;78.93;;;31.80;;
22973;SDS011;11653;50.848;4.584;2023-11-21T07:20:48;76.43;;;33.53;;
22973;SDS011;11653;50.848;4.584;2023-11-21T07:23:13;88.90;;;34.33;;
22973;SDS011;11653;50.848;4.584;2023-11-21T07:25:40;77.60;;;34.53;;
22973;SDS011;11653;50.848;4.584;2023-11-21T07:28:08;77.03;;;34.00;;
22973;SDS011;11653;50.848;4.584;2023-11-21T07:30:34;84.90;;;34.47;;
22973;SDS011;11653;50.848;4.584;2023-11-21T07:33:00;83.27;;;34.80;;
22973;SDS011;11653;50.848;4.584;2023-11-21T07:35:25;85.53;;;36.73;;
22973;SDS011;11653;50.848;4.584;2023-11-21T07:37:51;79.30;;;34.50;;
22973;SDS011;11653;50.848;4.584;2023-11-21T07:40:17;78.23;;;34.23;;
22973;SDS011;11653;50.848;4.584;2023-11-21T07:42:43;86.50;;;33.37;;
22973;SDS011;11653;50.848;4.584;2023-11-21T07:45:08;79.50;;;32.73;;
22973;SDS011;11653;50.848;4.584;2023-11-21T07:47:34;82.07;;;33.60;;
22973;SDS011;11653;50.848;4.584;2023-11-21T07:50:02;77.50;;;31.63;;
22973;SDS011;11653;50.848;4.584;2023-11-21T07:52:28;67.87;;;30.73;;
22973;SDS011;11653;50.848;4.584;2023-11-21T07:54:54;70.57;;;29.60;;
22973;SDS011;11653;50.848;4.584;2023-11-21T07:57:19;73.60;;;30.53;;
22973;SDS011;11653;50.848;4.584;2023-11-21T07:59:45;77.73;;;28.90;;
22973;SDS011;11653;50.848;4.584;2023-11-21T08:02:11;69.90;;;28.90;;
22973;SDS011;11653;50.848;4.584;2023-11-21T08:04:37;71.07;;;30.30;;
22973;SDS011;11653;50.848;4.584;2023-11-21T08:07:02;69.37;;;29.17;;
22973;SDS011;11653;50.848;4.584;2023-11-21T08:09:28;69.27;;;29.77;;
22973;SDS011;11653;50.848;4.584;2023-11-21T08:11:55;78.33;;;32.27;;
22973;SDS011;11653;50.848;4.584;2023-11-21T08:14:21;68.80;;;32.63;;
22973;SDS011;11653;50.848;4.584;2023-11-21T08:16:50;71.43;;;32.13;;
22973;SDS011;11653;50.848;4.584;2023-11-21T08:19:16;72.80;;;32.53;;
22973;SDS011;11653;50.848;4.584;2023-11-21T08:21:43;78.17;;;33.07;;
22973;SDS011;11653;50.848;4.584;2023-11-21T08:24:09;75.80;;;32.73;;
22973;SDS011;11653;50.848;4.584;2023-11-21T08:26:36;72.43;;;33.40;;
22973;SDS011;11653;50.848;4.584;2023-11-21T08:29:02;75.93;;;31.97;;
22973;SDS011;11653;50.848;4.584;2023-11-21T08:31:28;74.47;;;33.47;;
22973;SDS011;11653;50.848;4.584;2023-11-21T08:33:54;72.97;;;32.53;;
22973;SDS011;11653;50.848;4.584;2023-11-21T08:36:21;75.67;;;31.80;;
22973;SDS011;11653;50.848;4.584;2023-11-21T08:38:49;73.07;;;32.90;;
22973;SDS011;11653;50.848;4.584;2023-11-21T08:41:17;73.40;;;31.60;;
22973;SDS011;11653;50.848;4.584;2023-11-21T08:43:43;84.97;;;33.27;;
22973;SDS011;11653;50.848;4.584;2023-11-21T08:46:09;73.27;;;31.73;;
22973;SDS011;11653;50.848;4.584;2023-11-21T08:48:37;71.57;;;31.23;;
22973;SDS011;11653;50.848;4.584;2023-11-21T08:51:03;90.47;;;33.77;;
22973;SDS011;11653;50.848;4.584;2023-11-21T08:53:29;92.40;;;32.10;;
22973;SDS011;11653;50.848;4.584;2023-11-21T08:55:56;82.43;;;31.37;;
22973;SDS011;11653;50.848;4.584;2023-11-21T08:58:22;83.93;;;31.43;;
22973;SDS011;11653;50.848;4.584;2023-11-21T09:00:47;86.23;;;33.50;;
22973;SDS011;11653;50.848;4.584;2023-11-21T09:03:13;82.87;;;33.80;;
22973;SDS011;11653;50.848;4.584;2023-11-21T09:05:39;87.13;;;33.10;;
22973;SDS011;11653;50.848;4.584;2023-11-21T09:08:05;88.37;;;32.57;;
22973;SDS011;11653;50.848;4.584;2023-11-21T09:10:32;92.90;;;33.70;;
22973;SDS011;11653;50.848;4.584;2023-11-21T09:13:01;88.77;;;34.20;;
22973;SDS011;11653;50.848;4.584;2023-11-21T09:15:27;99.53;;;33.83;;
22973;SDS011;11653;50.848;4.584;2023-11-21T09:17:53;89.53;;;34.23;;
22973;SDS011;11653;50.848;4.584;2023-11-21T09:20:19;97.27;;;34.57;;
22973;SDS011;11653;50.848;4.584;2023-11-21T09:22:47;86.90;;;33.57;;
22973;SDS011;11653;50.848;4.584;2023-11-21T09:25:13;91.40;;;33.33;;
22973;SDS011;11653;50.848;4.584;2023-11-21T09:27:40;91.73;;;34.73;;
22973;SDS011;11653;50.848;4.584;2023-11-21T09:30:06;81.10;;;33.43;;
22973;SDS011;11653;50.848;4.584;2023-11-21T09:32:35;79.63;;;33.43;;
22973;SDS011;11653;50.848;4.584;2023-11-21T09:35:03;83.97;;;34.30;;
22973;SDS011;11653;50.848;4.584;2023-11-21T09:37:30;80.83;;;33.07;;
22973;SDS011;11653;50.848;4.584;2023-11-21T09:39:56;82.20;;;33.53;;
22973;SDS011;11653;50.848;4.584;2023-11-21T09:42:36;94.17;;;33.20;;
22973;SDS011;11653;50.848;4.584;2023-11-21T09:47:52;85.17;;;33.90;;
22973;SDS011;11653;50.848;4.584;2023-11-21T09:50:19;81.73;;;33.90;;
22973;SDS011;11653;50.848;4.584;2023-11-21T09:55:22;88.97;;;28.23;;
22973;SDS011;11653;50.848;4.584;2023-11-21T09:57:52;81.83;;;25.80;;
22973;SDS011;11653;50.848;4.584;2023-11-21T10:00:20;86.50;;;27.47;;
22973;SDS011;11653;50.848;4.584;2023-11-21T10:02:49;72.87;;;24.47;;
22973;SDS011;11653;50.848;4.584;2023-11-21T10:05:15;57.13;;;21.67;;
22973;SDS011;11653;50.848;4.584;2023-11-21T10:07:45;57.67;;;21.57;;
22973;SDS011;11653;50.848;4.584;2023-11-21T10:10:12;62.50;;;22.43;;
22973;SDS011;11653;50.848;4.584;2023-11-21T10:12:41;66.43;;;22.47;;
22973;SDS011;11653;50.848;4.584;2023-11-21T10:15:09;73.90;;;23.60;;
22973;SDS011;11653;50.848;4.584;2023-11-21T10:17:41;73.20;;;25.77;;
22973;SDS011;11653;50.848;4.584;2023-11-21T10:20:13;65.40;;;24.90;;
22973;SDS011;11653;50.848;4.584;2023-11-21T10:22:42;73.00;;;26.43;;
22973;SDS011;11653;50.848;4.584;2023-11-21T10:25:12;84.53;;;27.53;;
22973;SDS011;11653;50.848;4.584;2023-11-21T10:27:41;79.77;;;28.50;;
22973;SDS011;11653;50.848;4.584;2023-11-21T10:30:08;72.80;;;29.77;;
22973;SDS011;11653;50.848;4.584;2023-11-21T10:32:37;82.20;;;29.97;;
22973;SDS011;11653;50.848;4.584;2023-11-21T10:35:07;78.07;;;29.70;;
22973;SDS011;11653;50.848;4.584;2023-11-21T10:37:36;77.03;;;29.93;;
22973;SDS011;11653;50.848;4.584;2023-11-21T10:40:05;74.73;;;30.33;;
22973;SDS011;11653;50.848;4.584;2023-11-21T10:42:32;71.37;;;28.67;;
22973;SDS011;11653;50.848;4.584;2023-11-21T10:44:58;67.23;;;28.30;;
22973;SDS011;11653;50.848;4.584;2023-11-21T10:47:24;59.47;;;25.00;;
22973;SDS011;11653;50.848;4.584;2023-11-21T10:49:51;64.00;;;27.03;;
22973;SDS011;11653;50.848;4.584;2023-11-21T10:52:20;60.73;;;27.63;;
22973;SDS011;11653;50.848;4.584;2023-11-21T10:54:46;62.33;;;26.53;;
22973;SDS011;11653;50.848;4.584;2023-11-21T10:57:13;57.13;;;24.20;;
22973;SDS011;11653;50.848;4.584;2023-11-21T10:59:43;52.90;;;24.33;;
22973;SDS011;11653;50.848;4.584;2023-11-21T11:02:21;50.53;;;23.83;;
22973;SDS011;11653;50.848;4.584;2023-11-21T11:04:59;50.40;;;23.23;;
22973;SDS011;11653;50.848;4.584;2023-11-21T11:07:26;41.40;;;21.93;;
22973;SDS011;11653;50.848;4.584;2023-11-21T11:09:56;42.57;;;22.37;;
22973;SDS011;11653;50.848;4.584;2023-11-21T11:12:24;46.93;;;22.73;;
22973;SDS011;11653;50.848;4.584;2023-11-21T11:14:49;46.40;;;21.97;;
22973;SDS011;11653;50.848;4.584;2023-11-21T11:17:18;50.57;;;22.23;;
22973;SDS011;11653;50.848;4.584;2023-11-21T11:19:47;43.20;;;21.37;;
22973;SDS011;11653;50.848;4.584;2023-11-21T11:35:35;52.73;;;22.73;;
22973;SDS011;11653;50.848;4.584;2023-11-21T11:38:23;49.83;;;22.03;;
22973;SDS011;11653;50.848;4.584;2023-11-21T11:40:52;47.83;;;23.40;;
22973;SDS011;11653;50.848;4.584;2023-11-21T11:43:25;51.70;;;22.10;;
22973;SDS011;11653;50.848;4.584;2023-11-21T11:45:51;52.50;;;22.10;;
22973;SDS011;11653;50.848;4.584;2023-11-21T11:48:21;53.50;;;23.07;;
22973;SDS011;11653;50.848;4.584;2023-11-21T11:53:39;49.80;;;21.47;;
22973;SDS011;11653;50.848;4.584;2023-11-21T11:58:55;49.67;;;22.03;;
22973;SDS011;11653;50.848;4.584;2023-11-21T12:01:22;46.73;;;21.93;;
22973;SDS011;11653;50.848;4.584;2023-11-21T12:06:39;42.33;;;19.67;;
22973;SDS011;11653;50.848;4.584;2023-11-21T12:09:06;47.50;;;21.70;;
22973;SDS011;11653;50.848;4.584;2023-11-21T12:11:32;43.40;;;20.60;;
22973;SDS011;11653;50.848;4.584;2023-11-21T12:14:00;40.77;;;19.60;;
22973;SDS011;11653;50.848;4.584;2023-11-21T12:16:32;38.67;;;18.30;;
22973;SDS011;11653;50.848;4.584;2023-11-21T12:18:58;37.17;;;17.67;;
22973;SDS011;11653;50.848;4.584;2023-11-21T12:21:23;36.47;;;17.50;;
22973;SDS011;11653;50.848;4.584;2023-11-21T12:23:50;37.97;;;17.57;;
22973;SDS011;11653;50.848;4.584;2023-11-21T12:26:16;36.13;;;17.20;;
22973;SDS011;11653;50.848;4.584;2023-11-21T12:28:41;35.97;;;17.17;;
22973;SDS011;11653;50.848;4.584;2023-11-21T12:31:08;35.70;;;17.83;;
22973;SDS011;11653;50.848;4.584;2023-11-21T12:33:34;34.13;;;16.10;;
22973;SDS011;11653;50.848;4.584;2023-11-21T12:36:00;31.63;;;16.63;;
22973;SDS011;11653;50.848;4.584;2023-11-21T12:38:33;33.77;;;14.70;;
22973;SDS011;11653;50.848;4.584;2023-11-21T12:41:00;28.77;;;14.00;;
22973;SDS011;11653;50.848;4.584;2023-11-21T12:43:25;27.37;;;14.17;;
22973;SDS011;11653;50.848;4.584;2023-11-21T12:46:01;29.53;;;13.77;;
22973;SDS011;11653;50.848;4.584;2023-11-21T12:48:42;30.33;;;14.10;;
22973;SDS011;11653;50.848;4.584;2023-11-21T12:51:13;25.97;;;13.10;;
22973;SDS011;11653;50.848;4.584;2023-11-21T12:53:43;26.90;;;12.17;;
22973;SDS011;11653;50.848;4.584;2023-11-21T12:56:12;20.93;;;10.43;;
22973;SDS011;11653;50.848;4.584;2023-11-21T12:58:40;17.40;;;9.33;;
22973;SDS011;11653;50.848;4.584;2023-11-21T13:01:10;18.20;;;8.77;;
22973;SDS011;11653;50.848;4.584;2023-11-21T13:03:42;12.53;;;7.17;;
22973;SDS011;11653;50.848;4.584;2023-11-21T13:06:10;13.20;;;8.30;;
22973;SDS011;11653;50.848;4.584;2023-11-21T13:08:37;9.43;;;7.10;;
22973;SDS011;11653;50.848;4.584;2023-11-21T13:11:04;11.30;;;7.60;;
22973;SDS011;11653;50.848;4.584;2023-11-21T13:13:31;10.87;;;7.20;;
22973;SDS011;11653;50.848;4.584;2023-11-21T13:18:29;11.63;;;5.23;;
22973;SDS011;11653;50.848;4.584;2023-11-21T13:20:56;6.67;;;5.27;;
22973;SDS011;11653;50.848;4.584;2023-11-21T13:23:28;11.90;;;5.80;;
22973;SDS011;11653;50.848;4.584;2023-11-21T13:25:56;7.80;;;5.23;;
22973;SDS011;11653;50.848;4.584;2023-11-21T13:28:23;8.50;;;5.73;;
22973;SDS011;11653;50.848;4.584;2023-11-21T13:30:51;7.10;;;4.83;;
22973;SDS011;11653;50.848;4.584;2023-11-21T13:33:18;10.33;;;5.37;;
22973;SDS011;11653;50.848;4.584;2023-11-21T13:35:46;6.40;;;4.97;;
22973;SDS011;11653;50.848;4.584;2023-11-21T13:38:15;8.70;;;5.77;;
22973;SDS011;11653;50.848;4.584;2023-11-21T13:40:42;7.70;;;5.93;;
22973;SDS011;11653;50.848;4.584;2023-11-21T13:43:15;8.20;;;5.93;;
22973;SDS011;11653;50.848;4.584;2023-11-21T13:45:46;8.37;;;5.77;;
22973;SDS011;11653;50.848;4.584;2023-11-21T13:48:13;10.67;;;5.73;;
22973;SDS011;11653;50.848;4.584;2023-11-21T13:50:39;9.10;;;5.67;;
22973;SDS011;11653;50.848;4.584;2023-11-21T13:53:13;6.83;;;5.07;;
22973;SDS011;11653;50.848;4.584;2023-11-21T13:55:51;10.03;;;5.17;;
22973;SDS011;11653;50.848;4.584;2023-11-21T13:58:19;8.10;;;4.90;;
22973;SDS011;11653;50.848;4.584;2023-11-21T14:00:59;6.23;;;5.20;;
22973;SDS011;11653;50.848;4.584;2023-11-21T14:03:31;7.40;;;5.23;;
22973;SDS011;11653;50.848;4.584;2023-11-21T14:06:09;7.83;;;4.90;;
22973;SDS011;11653;50.848;4.584;2023-11-21T14:08:40;6.20;;;4.77;;
22973;SDS011;11653;50.848;4.584;2023-11-21T14:11:06;7.37;;;4.80;;
22973;SDS011;11653;50.848;4.584;2023-11-21T14:13:32;6.87;;;4.57;;
22973;SDS011;11653;50.848;4.584;2023-11-21T14:15:58;30.33;;;20.07;;
22973;SDS011;11653;50.848;4.584;2023-11-21T14:18:25;9.57;;;7.13;;
22973;SDS011;11653;50.848;4.584;2023-11-21T14:21:04;7.17;;;4.80;;
22973;SDS011;11653;50.848;4.584;2023-11-21T14:23:40;6.93;;;4.87;;
22973;SDS011;11653;50.848;4.584;2023-11-21T14:26:06;6.97;;;4.93;;
22973;SDS011;11653;50.848;4.584;2023-11-21T14:28:32;7.57;;;4.97;;
22973;SDS011;11653;50.848;4.584;2023-11-21T14:31:00;6.50;;;4.40;;
22973;SDS011;11653;50.848;4.584;2023-11-21T14:33:25;7.43;;;5.10;;
22973;SDS011;11653;50.848;4.584;2023-11-21T14:35:51;6.83;;;4.80;;
22973;SDS011;11653;50.848;4.584;2023-11-21T14:38:17;6.83;;;5.20;;
22973;SDS011;11653;50.848;4.584;2023-11-21T14:40:43;7.20;;;5.23;;
22973;SDS011;11653;50.848;4.584;2023-11-21T14:43:09;8.67;;;5.33;;
22973;SDS011;11653;50.848;4.584;2023-11-21T14:45:35;7.57;;;5.10;;
22973;SDS011;11653;50.848;4.584;2023-11-21T14:48:01;6.37;;;4.70;;
22973;SDS011;11653;50.848;4.584;2023-11-21T14:50:29;6.23;;;4.73;;
22973;SDS011;11653;50.848;4.584;2023-11-21T14:53:04;6.00;;;4.97;;